sensor_id;sensor_type;location;lat;lon;timestamp;P1;durP1;ratioP1;P2;durP2;ratioP2
19231;SDS011;9750;48.730;10.294;2024-03-25T00:00:20;3.43;;;2.60;;
19231;SDS011;9750;48.730;10.294;2024-03-25T00:02:50;3.63;;;2.90;;
19231;SDS011;9750;48.730;10.294;2024-03-25T00:05:16;4.03;;;2.60;;
19231;SDS011;9750;48.730;10.294;2024-03-25T00:07:47;5.33;;;2.87;;
19231;SDS011;9750;48.730;10.294;2024-03-25T00:10:17;3.93;;;2.63;;
19231;SDS011;9750;48.730;10.294;2024-03-25T00:12:47;5.00;;;2.50;;
19231;SDS011;9750;48.730;10.294;2024-03-25T00:15:17;5.57;;;3.10;;
19231;SDS011;9750;48.730;10.294;2024-03-25T00:17:46;5.27;;;2.60;;
19231;SDS011;9750;48.730;10.294;2024-03-25T00:20:12;3.37;;;2.80;;
19231;SDS011;9750;48.730;10.294;2024-03-25T00:22:40;4.20;;;2.90;;
19231;SDS011;9750;48.730;10.294;2024-03-25T00:25:06;4.27;;;3.10;;
19231;SDS011;9750;48.730;10.294;2024-03-25T00:27:34;4.23;;;2.60;;
19231;SDS011;9750;48.730;10.294;2024-03-25T00:30:02;4.30;;;2.87;;
19231;SDS011;9750;48.730;10.294;2024-03-25T00:32:31;4.13;;;2.60;;
19231;SDS011;9750;48.730;10.294;2024-03-25T00:34:57;4.80;;;3.00;;
19231;SDS011;9750;48.730;10.294;2024-03-25T00:37:24;5.40;;;2.73;;
19231;SDS011;9750;48.730;10.294;2024-03-25T00:39:51;5.00;;;3.10;;
19231;SDS011;9750;48.730;10.294;2024-03-25T00:42:18;4.37;;;2.83;;
19231;SDS011;9750;48.730;10.294;2024-03-25T00:44:44;4.90;;;3.20;;
19231;SDS011;9750;48.730;10.294;2024-03-25T00:47:13;5.43;;;3.20;;
19231;SDS011;9750;48.730;10.294;2024-03-25T00:49:39;5.17;;;3.27;;
19231;SDS011;9750;48.730;10.294;2024-03-25T00:52:06;5.83;;;3.30;;
19231;SDS011;9750;48.730;10.294;2024-03-25T00:54:33;5.80;;;3.17;;
19231;SDS011;9750;48.730;10.294;2024-03-25T00:57:00;4.13;;;3.00;;
19231;SDS011;9750;48.730;10.294;2024-03-25T00:59:26;6.03;;;2.87;;
19231;SDS011;9750;48.730;10.294;2024-03-25T01:01:53;5.40;;;2.90;;
19231;SDS011;9750;48.730;10.294;2024-03-25T01:04:21;3.30;;;2.80;;
19231;SDS011;9750;48.730;10.294;2024-03-25T01:06:49;7.47;;;3.40;;
19231;SDS011;9750;48.730;10.294;2024-03-25T01:09:15;6.00;;;3.07;;
19231;SDS011;9750;48.730;10.294;2024-03-25T01:11:44;5.17;;;3.40;;
19231;SDS011;9750;48.730;10.294;2024-03-25T01:14:10;5.63;;;3.20;;
19231;SDS011;9750;48.730;10.294;2024-03-25T01:16:37;4.57;;;3.10;;
19231;SDS011;9750;48.730;10.294;2024-03-25T01:19:04;5.50;;;3.00;;
19231;SDS011;9750;48.730;10.294;2024-03-25T01:21:32;8.07;;;3.50;;
19231;SDS011;9750;48.730;10.294;2024-03-25T01:24:00;5.60;;;3.50;;
19231;SDS011;9750;48.730;10.294;2024-03-25T01:26:27;4.70;;;3.27;;
19231;SDS011;9750;48.730;10.294;2024-03-25T01:28:54;6.03;;;3.40;;
19231;SDS011;9750;48.730;10.294;2024-03-25T01:31:21;5.27;;;3.57;;
19231;SDS011;9750;48.730;10.294;2024-03-25T01:33:47;3.83;;;3.17;;
19231;SDS011;9750;48.730;10.294;2024-03-25T01:36:16;4.40;;;3.00;;
19231;SDS011;9750;48.730;10.294;2024-03-25T01:38:44;5.00;;;3.20;;
19231;SDS011;9750;48.730;10.294;2024-03-25T01:41:12;6.03;;;3.47;;
19231;SDS011;9750;48.730;10.294;2024-03-25T01:43:40;4.93;;;3.47;;
19231;SDS011;9750;48.730;10.294;2024-03-25T01:46:08;6.67;;;3.63;;
19231;SDS011;9750;48.730;10.294;2024-03-25T01:48:35;5.50;;;3.50;;
19231;SDS011;9750;48.730;10.294;2024-03-25T01:51:03;5.57;;;3.60;;
19231;SDS011;9750;48.730;10.294;2024-03-25T01:53:29;9.47;;;4.00;;
19231;SDS011;9750;48.730;10.294;2024-03-25T01:55:59;5.83;;;3.73;;
19231;SDS011;9750;48.730;10.294;2024-03-25T01:58:26;6.60;;;3.80;;
19231;SDS011;9750;48.730;10.294;2024-03-25T02:00:53;5.00;;;3.37;;
19231;SDS011;9750;48.730;10.294;2024-03-25T02:03:20;4.47;;;3.70;;
19231;SDS011;9750;48.730;10.294;2024-03-25T02:05:49;4.33;;;3.60;;
19231;SDS011;9750;48.730;10.294;2024-03-25T02:08:20;7.67;;;3.60;;
19231;SDS011;9750;48.730;10.294;2024-03-25T02:10:48;7.87;;;4.10;;
19231;SDS011;9750;48.730;10.294;2024-03-25T02:13:16;6.03;;;3.93;;
19231;SDS011;9750;48.730;10.294;2024-03-25T02:15:44;5.63;;;3.50;;
19231;SDS011;9750;48.730;10.294;2024-03-25T02:18:10;8.63;;;4.10;;
19231;SDS011;9750;48.730;10.294;2024-03-25T02:20:38;5.63;;;3.60;;
19231;SDS011;9750;48.730;10.294;2024-03-25T02:23:04;11.47;;;4.20;;
19231;SDS011;9750;48.730;10.294;2024-03-25T02:25:31;7.87;;;4.23;;
19231;SDS011;9750;48.730;10.294;2024-03-25T02:28:00;5.47;;;3.43;;
19231;SDS011;9750;48.730;10.294;2024-03-25T02:30:27;8.23;;;4.07;;
19231;SDS011;9750;48.730;10.294;2024-03-25T02:32:55;6.97;;;4.17;;
19231;SDS011;9750;48.730;10.294;2024-03-25T02:35:21;5.90;;;3.87;;
19231;SDS011;9750;48.730;10.294;2024-03-25T02:37:50;4.43;;;3.60;;
19231;SDS011;9750;48.730;10.294;2024-03-25T02:40:18;8.73;;;3.87;;
19231;SDS011;9750;48.730;10.294;2024-03-25T02:42:47;8.83;;;3.70;;
19231;SDS011;9750;48.730;10.294;2024-03-25T02:45:14;6.67;;;3.83;;
19231;SDS011;9750;48.730;10.294;2024-03-25T02:47:43;4.73;;;3.67;;
19231;SDS011;9750;48.730;10.294;2024-03-25T02:50:09;6.60;;;4.00;;
19231;SDS011;9750;48.730;10.294;2024-03-25T02:52:36;6.97;;;3.90;;
19231;SDS011;9750;48.730;10.294;2024-03-25T02:55:02;8.33;;;4.27;;
19231;SDS011;9750;48.730;10.294;2024-03-25T02:57:30;5.93;;;4.10;;
19231;SDS011;9750;48.730;10.294;2024-03-25T02:59:56;8.53;;;3.80;;
19231;SDS011;9750;48.730;10.294;2024-03-25T03:02:25;8.33;;;4.40;;
19231;SDS011;9750;48.730;10.294;2024-03-25T03:04:51;7.00;;;4.50;;
19231;SDS011;9750;48.730;10.294;2024-03-25T03:07:19;9.37;;;3.73;;
19231;SDS011;9750;48.730;10.294;2024-03-25T03:09:45;7.13;;;4.07;;
19231;SDS011;9750;48.730;10.294;2024-03-25T03:12:12;5.47;;;3.67;;
19231;SDS011;9750;48.730;10.294;2024-03-25T03:14:38;7.80;;;4.10;;
19231;SDS011;9750;48.730;10.294;2024-03-25T03:17:06;6.83;;;3.90;;
19231;SDS011;9750;48.730;10.294;2024-03-25T03:19:33;6.77;;;4.23;;
19231;SDS011;9750;48.730;10.294;2024-03-25T03:22:00;7.27;;;4.53;;
19231;SDS011;9750;48.730;10.294;2024-03-25T03:24:27;6.13;;;3.73;;
19231;SDS011;9750;48.730;10.294;2024-03-25T03:26:54;5.70;;;4.30;;
19231;SDS011;9750;48.730;10.294;2024-03-25T03:29:20;6.53;;;4.43;;
19231;SDS011;9750;48.730;10.294;2024-03-25T03:31:48;6.23;;;4.23;;
19231;SDS011;9750;48.730;10.294;2024-03-25T03:37:07;8.63;;;4.50;;
19231;SDS011;9750;48.730;10.294;2024-03-25T03:39:33;5.40;;;4.37;;
19231;SDS011;9750;48.730;10.294;2024-03-25T03:42:01;5.40;;;4.17;;
19231;SDS011;9750;48.730;10.294;2024-03-25T03:44:27;4.67;;;3.90;;
19231;SDS011;9750;48.730;10.294;2024-03-25T03:46:54;5.50;;;3.90;;
19231;SDS011;9750;48.730;10.294;2024-03-25T03:49:20;5.83;;;4.37;;
19231;SDS011;9750;48.730;10.294;2024-03-25T03:51:49;5.50;;;4.00;;
19231;SDS011;9750;48.730;10.294;2024-03-25T03:54:15;7.17;;;4.33;;
19231;SDS011;9750;48.730;10.294;2024-03-25T03:56:43;6.40;;;3.70;;
19231;SDS011;9750;48.730;10.294;2024-03-25T03:59:09;6.67;;;4.33;;
19231;SDS011;9750;48.730;10.294;2024-03-25T04:01:36;7.00;;;4.30;;
19231;SDS011;9750;48.730;10.294;2024-03-25T04:04:02;6.63;;;4.27;;
19231;SDS011;9750;48.730;10.294;2024-03-25T04:06:30;6.50;;;3.83;;
19231;SDS011;9750;48.730;10.294;2024-03-25T04:08:58;5.87;;;4.00;;
19231;SDS011;9750;48.730;10.294;2024-03-25T04:11:25;5.57;;;4.00;;
19231;SDS011;9750;48.730;10.294;2024-03-25T04:13:51;8.17;;;4.50;;
19231;SDS011;9750;48.730;10.294;2024-03-25T04:16:18;6.57;;;4.30;;
19231;SDS011;9750;48.730;10.294;2024-03-25T04:18:44;5.23;;;3.60;;
19231;SDS011;9750;48.730;10.294;2024-03-25T04:21:14;6.13;;;3.67;;
19231;SDS011;9750;48.730;10.294;2024-03-25T04:23:40;7.60;;;4.17;;
19231;SDS011;9750;48.730;10.294;2024-03-25T04:26:10;8.07;;;4.20;;
19231;SDS011;9750;48.730;10.294;2024-03-25T04:28:36;4.83;;;4.20;;
19231;SDS011;9750;48.730;10.294;2024-03-25T04:31:03;8.40;;;4.30;;
19231;SDS011;9750;48.730;10.294;2024-03-25T04:33:29;7.07;;;4.30;;
19231;SDS011;9750;48.730;10.294;2024-03-25T04:35:57;8.60;;;4.20;;
19231;SDS011;9750;48.730;10.294;2024-03-25T04:38:23;5.97;;;4.00;;
19231;SDS011;9750;48.730;10.294;2024-03-25T04:40:49;6.23;;;4.33;;
19231;SDS011;9750;48.730;10.294;2024-03-25T04:43:17;5.33;;;4.23;;
19231;SDS011;9750;48.730;10.294;2024-03-25T04:45:43;7.33;;;4.17;;
19231;SDS011;9750;48.730;10.294;2024-03-25T04:48:09;7.53;;;4.60;;
19231;SDS011;9750;48.730;10.294;2024-03-25T04:50:36;10.87;;;5.03;;
19231;SDS011;9750;48.730;10.294;2024-03-25T04:53:02;7.20;;;4.47;;
19231;SDS011;9750;48.730;10.294;2024-03-25T04:55:28;6.07;;;4.60;;
19231;SDS011;9750;48.730;10.294;2024-03-25T04:57:55;8.10;;;4.70;;
19231;SDS011;9750;48.730;10.294;2024-03-25T05:00:22;7.20;;;4.70;;
19231;SDS011;9750;48.730;10.294;2024-03-25T05:02:49;7.03;;;5.20;;
19231;SDS011;9750;48.730;10.294;2024-03-25T05:05:21;7.80;;;5.47;;
19231;SDS011;9750;48.730;10.294;2024-03-25T05:07:47;8.90;;;5.20;;
19231;SDS011;9750;48.730;10.294;2024-03-25T05:10:13;7.23;;;5.50;;
19231;SDS011;9750;48.730;10.294;2024-03-25T05:12:40;7.87;;;5.10;;
19231;SDS011;9750;48.730;10.294;2024-03-25T05:15:06;6.10;;;5.07;;
19231;SDS011;9750;48.730;10.294;2024-03-25T05:17:34;9.27;;;5.47;;
19231;SDS011;9750;48.730;10.294;2024-03-25T05:20:00;7.77;;;5.13;;
19231;SDS011;9750;48.730;10.294;2024-03-25T05:22:26;7.57;;;5.00;;
19231;SDS011;9750;48.730;10.294;2024-03-25T05:24:53;8.13;;;5.65;;
19231;SDS011;9750;48.730;10.294;2024-03-25T05:27:19;8.10;;;4.87;;
19231;SDS011;9750;48.730;10.294;2024-03-25T05:29:45;7.20;;;4.93;;
19231;SDS011;9750;48.730;10.294;2024-03-25T05:32:11;7.53;;;4.63;;
19231;SDS011;9750;48.730;10.294;2024-03-25T05:34:39;7.90;;;4.80;;
19231;SDS011;9750;48.730;10.294;2024-03-25T05:37:05;8.07;;;4.80;;
19231;SDS011;9750;48.730;10.294;2024-03-25T05:39:31;11.10;;;4.83;;
19231;SDS011;9750;48.730;10.294;2024-03-25T05:41:58;5.77;;;4.57;;
19231;SDS011;9750;48.730;10.294;2024-03-25T05:44:24;9.13;;;5.07;;
19231;SDS011;9750;48.730;10.294;2024-03-25T05:46:50;7.17;;;5.03;;
19231;SDS011;9750;48.730;10.294;2024-03-25T05:49:16;8.53;;;5.10;;
19231;SDS011;9750;48.730;10.294;2024-03-25T05:51:44;7.23;;;4.90;;
19231;SDS011;9750;48.730;10.294;2024-03-25T05:54:10;9.03;;;5.00;;
19231;SDS011;9750;48.730;10.294;2024-03-25T05:56:36;6.47;;;4.50;;
19231;SDS011;9750;48.730;10.294;2024-03-25T05:59:03;10.40;;;5.23;;
19231;SDS011;9750;48.730;10.294;2024-03-25T06:01:29;7.50;;;5.13;;
19231;SDS011;9750;48.730;10.294;2024-03-25T06:03:55;8.33;;;5.03;;
19231;SDS011;9750;48.730;10.294;2024-03-25T06:06:21;7.50;;;5.10;;
19231;SDS011;9750;48.730;10.294;2024-03-25T06:08:49;6.77;;;5.17;;
19231;SDS011;9750;48.730;10.294;2024-03-25T06:11:15;7.40;;;4.87;;
19231;SDS011;9750;48.730;10.294;2024-03-25T06:13:42;7.10;;;4.73;;
19231;SDS011;9750;48.730;10.294;2024-03-25T06:16:10;7.30;;;4.73;;
19231;SDS011;9750;48.730;10.294;2024-03-25T06:18:36;10.60;;;4.97;;
19231;SDS011;9750;48.730;10.294;2024-03-25T06:21:03;5.30;;;4.80;;
19231;SDS011;9750;48.730;10.294;2024-03-25T06:23:29;6.07;;;4.37;;
19231;SDS011;9750;48.730;10.294;2024-03-25T06:25:57;6.17;;;4.70;;
19231;SDS011;9750;48.730;10.294;2024-03-25T06:28:23;5.27;;;4.33;;
19231;SDS011;9750;48.730;10.294;2024-03-25T06:30:50;7.90;;;4.97;;
19231;SDS011;9750;48.730;10.294;2024-03-25T06:33:35;6.77;;;4.40;;
19231;SDS011;9750;48.730;10.294;2024-03-25T06:36:27;6.53;;;4.07;;
19231;SDS011;9750;48.730;10.294;2024-03-25T06:38:53;5.70;;;4.37;;
19231;SDS011;9750;48.730;10.294;2024-03-25T06:41:20;6.87;;;4.87;;
19231;SDS011;9750;48.730;10.294;2024-03-25T06:43:47;7.90;;;4.37;;
19231;SDS011;9750;48.730;10.294;2024-03-25T06:46:13;7.67;;;4.87;;
19231;SDS011;9750;48.730;10.294;2024-03-25T06:48:39;4.87;;;3.83;;
19231;SDS011;9750;48.730;10.294;2024-03-25T06:51:05;7.37;;;4.57;;
19231;SDS011;9750;48.730;10.294;2024-03-25T06:53:32;10.63;;;4.50;;
19231;SDS011;9750;48.730;10.294;2024-03-25T06:55:58;6.23;;;4.50;;
19231;SDS011;9750;48.730;10.294;2024-03-25T06:58:27;8.40;;;4.60;;
19231;SDS011;9750;48.730;10.294;2024-03-25T07:00:54;7.90;;;5.00;;
19231;SDS011;9750;48.730;10.294;2024-03-25T07:03:21;9.07;;;5.07;;
19231;SDS011;9750;48.730;10.294;2024-03-25T07:05:48;11.27;;;7.20;;
19231;SDS011;9750;48.730;10.294;2024-03-25T07:08:16;6.43;;;4.60;;
19231;SDS011;9750;48.730;10.294;2024-03-25T07:10:42;7.73;;;4.50;;
19231;SDS011;9750;48.730;10.294;2024-03-25T07:13:09;7.77;;;4.33;;
19231;SDS011;9750;48.730;10.294;2024-03-25T07:15:36;5.23;;;4.43;;
19231;SDS011;9750;48.730;10.294;2024-03-25T07:18:03;5.10;;;4.03;;
19231;SDS011;9750;48.730;10.294;2024-03-25T07:20:29;7.63;;;5.03;;
19231;SDS011;9750;48.730;10.294;2024-03-25T07:22:56;7.43;;;4.67;;
19231;SDS011;9750;48.730;10.294;2024-03-25T07:25:22;7.27;;;4.07;;
19231;SDS011;9750;48.730;10.294;2024-03-25T07:27:48;8.53;;;4.60;;
19231;SDS011;9750;48.730;10.294;2024-03-25T07:30:15;6.10;;;4.33;;
19231;SDS011;9750;48.730;10.294;2024-03-25T07:32:43;7.73;;;4.10;;
19231;SDS011;9750;48.730;10.294;2024-03-25T07:35:09;6.47;;;4.60;;
19231;SDS011;9750;48.730;10.294;2024-03-25T07:37:35;6.90;;;4.37;;
19231;SDS011;9750;48.730;10.294;2024-03-25T07:40:02;8.30;;;4.77;;
19231;SDS011;9750;48.730;10.294;2024-03-25T07:42:29;6.27;;;4.60;;
19231;SDS011;9750;48.730;10.294;2024-03-25T07:44:55;5.73;;;4.40;;
19231;SDS011;9750;48.730;10.294;2024-03-25T07:47:21;7.50;;;4.77;;
19231;SDS011;9750;48.730;10.294;2024-03-25T07:49:49;6.57;;;4.73;;
19231;SDS011;9750;48.730;10.294;2024-03-25T07:52:15;10.63;;;4.90;;
19231;SDS011;9750;48.730;10.294;2024-03-25T07:54:41;6.47;;;4.80;;
19231;SDS011;9750;48.730;10.294;2024-03-25T07:57:08;8.30;;;5.33;;
19231;SDS011;9750;48.730;10.294;2024-03-25T07:59:34;6.83;;;4.73;;
19231;SDS011;9750;48.730;10.294;2024-03-25T08:02:01;10.57;;;5.30;;
19231;SDS011;9750;48.730;10.294;2024-03-25T08:04:27;7.53;;;4.80;;
19231;SDS011;9750;48.730;10.294;2024-03-25T08:06:55;7.00;;;4.43;;
19231;SDS011;9750;48.730;10.294;2024-03-25T08:09:21;8.90;;;5.73;;
19231;SDS011;9750;48.730;10.294;2024-03-25T08:11:47;10.40;;;6.50;;
19231;SDS011;9750;48.730;10.294;2024-03-25T08:14:14;17.97;;;14.17;;
19231;SDS011;9750;48.730;10.294;2024-03-25T08:16:40;8.37;;;5.40;;
19231;SDS011;9750;48.730;10.294;2024-03-25T08:19:06;7.37;;;5.80;;
19231;SDS011;9750;48.730;10.294;2024-03-25T08:21:33;6.57;;;4.83;;
19231;SDS011;9750;48.730;10.294;2024-03-25T08:24:00;8.10;;;5.30;;
19231;SDS011;9750;48.730;10.294;2024-03-25T08:26:27;9.17;;;5.00;;
19231;SDS011;9750;48.730;10.294;2024-03-25T08:28:53;9.40;;;4.63;;
19231;SDS011;9750;48.730;10.294;2024-03-25T08:31:19;7.67;;;4.83;;
19231;SDS011;9750;48.730;10.294;2024-03-25T08:33:45;6.93;;;4.97;;
19231;SDS011;9750;48.730;10.294;2024-03-25T08:36:12;7.83;;;4.60;;
19231;SDS011;9750;48.730;10.294;2024-03-25T08:38:38;7.43;;;5.10;;
19231;SDS011;9750;48.730;10.294;2024-03-25T08:41:05;7.73;;;5.20;;
19231;SDS011;9750;48.730;10.294;2024-03-25T08:43:32;9.07;;;5.27;;
19231;SDS011;9750;48.730;10.294;2024-03-25T08:48:29;8.00;;;5.00;;
19231;SDS011;9750;48.730;10.294;2024-03-25T08:50:55;10.80;;;5.40;;
19231;SDS011;9750;48.730;10.294;2024-03-25T08:53:22;7.23;;;4.43;;
19231;SDS011;9750;48.730;10.294;2024-03-25T08:55:48;6.73;;;4.20;;
19231;SDS011;9750;48.730;10.294;2024-03-25T08:58:16;6.10;;;4.57;;
19231;SDS011;9750;48.730;10.294;2024-03-25T09:00:42;9.63;;;4.70;;
19231;SDS011;9750;48.730;10.294;2024-03-25T09:03:08;7.60;;;4.87;;
19231;SDS011;9750;48.730;10.294;2024-03-25T09:05:35;5.87;;;4.23;;
19231;SDS011;9750;48.730;10.294;2024-03-25T09:08:01;6.20;;;4.37;;
19231;SDS011;9750;48.730;10.294;2024-03-25T09:10:28;9.67;;;4.30;;
19231;SDS011;9750;48.730;10.294;2024-03-25T09:13:13;5.90;;;3.97;;
19231;SDS011;9750;48.730;10.294;2024-03-25T09:15:41;5.67;;;4.10;;
19231;SDS011;9750;48.730;10.294;2024-03-25T09:18:07;5.13;;;3.90;;
19231;SDS011;9750;48.730;10.294;2024-03-25T09:20:33;6.10;;;4.00;;
19231;SDS011;9750;48.730;10.294;2024-03-25T09:22:59;7.27;;;3.77;;
19231;SDS011;9750;48.730;10.294;2024-03-25T09:25:26;5.70;;;4.07;;
19231;SDS011;9750;48.730;10.294;2024-03-25T09:27:52;6.67;;;4.27;;
19231;SDS011;9750;48.730;10.294;2024-03-25T09:30:18;7.60;;;4.87;;
19231;SDS011;9750;48.730;10.294;2024-03-25T09:32:46;4.87;;;3.97;;
19231;SDS011;9750;48.730;10.294;2024-03-25T09:35:12;5.43;;;4.30;;
19231;SDS011;9750;48.730;10.294;2024-03-25T09:37:38;8.40;;;4.37;;
19231;SDS011;9750;48.730;10.294;2024-03-25T09:40:05;6.53;;;5.40;;
19231;SDS011;9750;48.730;10.294;2024-03-25T09:42:33;6.73;;;3.83;;
19231;SDS011;9750;48.730;10.294;2024-03-25T09:45:07;6.90;;;4.00;;
19231;SDS011;9750;48.730;10.294;2024-03-25T09:47:35;5.53;;;3.93;;
19231;SDS011;9750;48.730;10.294;2024-03-25T09:50:05;7.37;;;3.93;;
19231;SDS011;9750;48.730;10.294;2024-03-25T09:52:33;6.10;;;4.33;;
19231;SDS011;9750;48.730;10.294;2024-03-25T09:55:00;4.50;;;3.90;;
19231;SDS011;9750;48.730;10.294;2024-03-25T09:57:26;6.17;;;3.87;;
19231;SDS011;9750;48.730;10.294;2024-03-25T09:59:53;5.37;;;3.90;;
19231;SDS011;9750;48.730;10.294;2024-03-25T10:02:20;4.97;;;3.77;;
19231;SDS011;9750;48.730;10.294;2024-03-25T10:04:48;4.70;;;3.53;;
19231;SDS011;9750;48.730;10.294;2024-03-25T10:07:20;8.53;;;3.80;;
19231;SDS011;9750;48.730;10.294;2024-03-25T10:09:47;4.20;;;3.27;;
19231;SDS011;9750;48.730;10.294;2024-03-25T10:12:13;6.23;;;3.50;;
19231;SDS011;9750;48.730;10.294;2024-03-25T10:14:40;4.83;;;3.53;;
19231;SDS011;9750;48.730;10.294;2024-03-25T10:17:06;4.03;;;3.23;;
19231;SDS011;9750;48.730;10.294;2024-03-25T10:19:32;5.00;;;3.20;;
19231;SDS011;9750;48.730;10.294;2024-03-25T10:22:06;5.47;;;3.83;;
19231;SDS011;9750;48.730;10.294;2024-03-25T10:24:38;5.73;;;3.87;;
19231;SDS011;9750;48.730;10.294;2024-03-25T10:27:05;4.43;;;3.00;;
19231;SDS011;9750;48.730;10.294;2024-03-25T10:29:31;5.07;;;3.10;;
19231;SDS011;9750;48.730;10.294;2024-03-25T10:31:58;4.73;;;3.30;;
19231;SDS011;9750;48.730;10.294;2024-03-25T10:37:46;4.23;;;2.87;;
19231;SDS011;9750;48.730;10.294;2024-03-25T10:40:14;4.77;;;3.00;;
19231;SDS011;9750;48.730;10.294;2024-03-25T10:42:40;4.93;;;3.10;;
19231;SDS011;9750;48.730;10.294;2024-03-25T10:45:11;3.90;;;2.80;;
19231;SDS011;9750;48.730;10.294;2024-03-25T10:47:37;4.03;;;3.00;;
19231;SDS011;9750;48.730;10.294;2024-03-25T10:50:05;4.43;;;3.03;;
19231;SDS011;9750;48.730;10.294;2024-03-25T10:52:35;4.57;;;2.70;;
19231;SDS011;9750;48.730;10.294;2024-03-25T10:55:03;5.03;;;2.60;;
19231;SDS011;9750;48.730;10.294;2024-03-25T10:57:32;4.03;;;2.93;;
19231;SDS011;9750;48.730;10.294;2024-03-25T11:00:00;3.90;;;3.03;;
19231;SDS011;9750;48.730;10.294;2024-03-25T11:02:29;3.40;;;2.90;;
19231;SDS011;9750;48.730;10.294;2024-03-25T11:04:57;4.00;;;2.77;;
19231;SDS011;9750;48.730;10.294;2024-03-25T11:07:30;4.73;;;2.80;;
19231;SDS011;9750;48.730;10.294;2024-03-25T11:10:06;3.43;;;2.70;;
19231;SDS011;9750;48.730;10.294;2024-03-25T11:12:36;3.63;;;2.30;;
19231;SDS011;9750;48.730;10.294;2024-03-25T11:15:03;4.50;;;2.70;;
19231;SDS011;9750;48.730;10.294;2024-03-25T11:17:32;3.20;;;2.70;;
19231;SDS011;9750;48.730;10.294;2024-03-25T11:20:08;5.47;;;2.90;;
19231;SDS011;9750;48.730;10.294;2024-03-25T11:22:36;4.87;;;2.90;;
19231;SDS011;9750;48.730;10.294;2024-03-25T11:25:13;5.70;;;2.80;;
19231;SDS011;9750;48.730;10.294;2024-03-25T11:27:42;3.23;;;2.60;;
19231;SDS011;9750;48.730;10.294;2024-03-25T11:30:09;3.73;;;2.80;;
19231;SDS011;9750;48.730;10.294;2024-03-25T11:32:46;6.27;;;3.47;;
19231;SDS011;9750;48.730;10.294;2024-03-25T11:35:12;5.37;;;3.37;;
19231;SDS011;9750;48.730;10.294;2024-03-25T11:37:39;4.10;;;3.00;;
19231;SDS011;9750;48.730;10.294;2024-03-25T11:40:06;5.00;;;2.90;;
19231;SDS011;9750;48.730;10.294;2024-03-25T11:42:33;3.83;;;2.53;;
19231;SDS011;9750;48.730;10.294;2024-03-25T11:45:01;3.80;;;3.13;;
19231;SDS011;9750;48.730;10.294;2024-03-25T11:47:29;5.10;;;2.70;;
19231;SDS011;9750;48.730;10.294;2024-03-25T11:49:56;4.77;;;3.20;;
19231;SDS011;9750;48.730;10.294;2024-03-25T11:52:22;5.07;;;3.83;;
19231;SDS011;9750;48.730;10.294;2024-03-25T11:54:53;4.77;;;3.60;;
19231;SDS011;9750;48.730;10.294;2024-03-25T11:57:20;5.50;;;3.70;;
19231;SDS011;9750;48.730;10.294;2024-03-25T11:59:46;5.53;;;3.63;;
19231;SDS011;9750;48.730;10.294;2024-03-25T12:02:15;4.63;;;3.33;;
19231;SDS011;9750;48.730;10.294;2024-03-25T12:04:44;6.13;;;3.43;;
19231;SDS011;9750;48.730;10.294;2024-03-25T12:07:12;5.00;;;3.73;;
19231;SDS011;9750;48.730;10.294;2024-03-25T12:09:38;5.53;;;4.03;;
19231;SDS011;9750;48.730;10.294;2024-03-25T12:12:23;5.63;;;3.70;;
19231;SDS011;9750;48.730;10.294;2024-03-25T12:14:50;4.97;;;3.30;;
19231;SDS011;9750;48.730;10.294;2024-03-25T12:17:18;5.43;;;3.43;;
19231;SDS011;9750;48.730;10.294;2024-03-25T12:19:45;5.63;;;3.60;;
19231;SDS011;9750;48.730;10.294;2024-03-25T12:22:24;5.57;;;3.80;;
19231;SDS011;9750;48.730;10.294;2024-03-25T12:24:51;4.17;;;3.60;;
19231;SDS011;9750;48.730;10.294;2024-03-25T12:27:17;4.63;;;3.60;;
19231;SDS011;9750;48.730;10.294;2024-03-25T12:29:43;5.10;;;3.73;;
19231;SDS011;9750;48.730;10.294;2024-03-25T12:32:09;5.17;;;4.20;;
19231;SDS011;9750;48.730;10.294;2024-03-25T12:34:37;5.77;;;3.70;;
19231;SDS011;9750;48.730;10.294;2024-03-25T12:37:03;6.60;;;3.83;;
19231;SDS011;9750;48.730;10.294;2024-03-25T12:39:30;5.87;;;3.90;;
19231;SDS011;9750;48.730;10.294;2024-03-25T12:41:56;5.27;;;3.73;;
19231;SDS011;9750;48.730;10.294;2024-03-25T12:44:23;5.40;;;3.73;;
19231;SDS011;9750;48.730;10.294;2024-03-25T12:46:49;5.23;;;4.73;;
19231;SDS011;9750;48.730;10.294;2024-03-25T12:49:16;7.87;;;6.17;;
19231;SDS011;9750;48.730;10.294;2024-03-25T12:51:43;5.80;;;4.00;;
19231;SDS011;9750;48.730;10.294;2024-03-25T12:54:10;4.73;;;3.87;;
19231;SDS011;9750;48.730;10.294;2024-03-25T12:56:36;5.87;;;4.10;;
19231;SDS011;9750;48.730;10.294;2024-03-25T12:59:02;5.37;;;3.77;;
19231;SDS011;9750;48.730;10.294;2024-03-25T13:01:28;4.80;;;4.00;;
19231;SDS011;9750;48.730;10.294;2024-03-25T13:03:54;3.83;;;3.43;;
19231;SDS011;9750;48.730;10.294;2024-03-25T13:06:21;4.67;;;3.80;;
19231;SDS011;9750;48.730;10.294;2024-03-25T13:08:48;4.90;;;4.00;;
19231;SDS011;9750;48.730;10.294;2024-03-25T13:11:15;4.60;;;3.70;;
19231;SDS011;9750;48.730;10.294;2024-03-25T13:13:41;5.43;;;3.83;;
19231;SDS011;9750;48.730;10.294;2024-03-25T13:19:29;7.83;;;4.63;;
19231;SDS011;9750;48.730;10.294;2024-03-25T13:21:55;4.20;;;3.50;;
19231;SDS011;9750;48.730;10.294;2024-03-25T13:24:23;7.97;;;4.03;;
19231;SDS011;9750;48.730;10.294;2024-03-25T13:26:49;6.50;;;3.80;;
19231;SDS011;9750;48.730;10.294;2024-03-25T13:29:15;4.43;;;3.40;;
19231;SDS011;9750;48.730;10.294;2024-03-25T13:31:41;5.30;;;3.83;;
19231;SDS011;9750;48.730;10.294;2024-03-25T13:34:08;4.90;;;3.73;;
19231;SDS011;9750;48.730;10.294;2024-03-25T13:36:34;5.83;;;4.00;;
19231;SDS011;9750;48.730;10.294;2024-03-25T13:39:01;6.53;;;5.00;;
19231;SDS011;9750;48.730;10.294;2024-03-25T13:41:28;5.87;;;4.27;;
19231;SDS011;9750;48.730;10.294;2024-03-25T13:43:55;4.40;;;3.70;;
19231;SDS011;9750;48.730;10.294;2024-03-25T13:46:21;4.80;;;3.57;;
19231;SDS011;9750;48.730;10.294;2024-03-25T13:48:47;9.23;;;5.57;;
19231;SDS011;9750;48.730;10.294;2024-03-25T13:51:13;4.07;;;3.47;;
19231;SDS011;9750;48.730;10.294;2024-03-25T13:53:40;4.33;;;3.60;;
19231;SDS011;9750;48.730;10.294;2024-03-25T13:56:06;5.47;;;3.80;;
19231;SDS011;9750;48.730;10.294;2024-03-25T13:58:34;5.57;;;3.80;;
19231;SDS011;9750;48.730;10.294;2024-03-25T14:01:00;5.13;;;3.37;;
19231;SDS011;9750;48.730;10.294;2024-03-25T14:03:26;3.53;;;3.20;;
19231;SDS011;9750;48.730;10.294;2024-03-25T14:05:52;5.17;;;3.30;;
19231;SDS011;9750;48.730;10.294;2024-03-25T14:08:19;5.17;;;3.60;;
19231;SDS011;9750;48.730;10.294;2024-03-25T14:10:45;3.90;;;3.40;;
19231;SDS011;9750;48.730;10.294;2024-03-25T14:13:11;3.33;;;2.60;;
19231;SDS011;9750;48.730;10.294;2024-03-25T14:15:39;3.70;;;2.80;;
19231;SDS011;9750;48.730;10.294;2024-03-25T14:18:05;3.30;;;3.00;;
19231;SDS011;9750;48.730;10.294;2024-03-25T14:20:31;3.40;;;3.10;;
19231;SDS011;9750;48.730;10.294;2024-03-25T14:22:58;3.40;;;3.10;;
19231;SDS011;9750;48.730;10.294;2024-03-25T14:25:24;8.93;;;3.27;;
19231;SDS011;9750;48.730;10.294;2024-03-25T14:27:50;6.83;;;4.37;;
19231;SDS011;9750;48.730;10.294;2024-03-25T14:30:17;4.43;;;3.70;;
19231;SDS011;9750;48.730;10.294;2024-03-25T14:32:45;4.10;;;3.03;;
19231;SDS011;9750;48.730;10.294;2024-03-25T14:35:11;3.10;;;2.80;;
19231;SDS011;9750;48.730;10.294;2024-03-25T14:37:37;3.30;;;2.93;;
19231;SDS011;9750;48.730;10.294;2024-03-25T14:40:05;3.63;;;2.93;;
19231;SDS011;9750;48.730;10.294;2024-03-25T14:42:32;4.43;;;2.50;;
19231;SDS011;9750;48.730;10.294;2024-03-25T14:44:58;3.00;;;2.53;;
19231;SDS011;9750;48.730;10.294;2024-03-25T14:47:25;3.37;;;3.03;;
19231;SDS011;9750;48.730;10.294;2024-03-25T14:49:52;3.50;;;2.70;;
19231;SDS011;9750;48.730;10.294;2024-03-25T14:52:19;3.97;;;2.80;;
19231;SDS011;9750;48.730;10.294;2024-03-25T14:54:45;3.77;;;2.47;;
19231;SDS011;9750;48.730;10.294;2024-03-25T14:57:11;3.60;;;2.40;;
19231;SDS011;9750;48.730;10.294;2024-03-25T14:59:37;2.40;;;2.13;;